sensor_id;sensor_type;location;lat;lon;timestamp;P1;durP1;ratioP1;P2;durP2;ratioP2
13349;SDS011;6744;53.190;6.576;2023-03-01T00:01:49;6.40;;;5.80;;
13349;SDS011;6744;53.190;6.576;2023-03-01T00:04:14;6.30;;;5.70;;
13349;SDS011;6744;53.190;6.576;2023-03-01T00:06:40;6.77;;;6.10;;
13349;SDS011;6744;53.190;6.576;2023-03-01T00:09:08;7.00;;;6.30;;
13349;SDS011;6744;53.190;6.576;2023-03-01T00:11:33;6.80;;;6.20;;
13349;SDS011;6744;53.190;6.576;2023-03-01T00:13:59;6.40;;;5.80;;
13349;SDS011;6744;53.190;6.576;2023-03-01T00:16:30;6.67;;;5.93;;
13349;SDS011;6744;53.190;6.576;2023-03-01T00:18:58;6.83;;;6.10;;
13349;SDS011;6744;53.190;6.576;2023-03-01T00:21:24;6.97;;;6.27;;
13349;SDS011;6744;53.190;6.576;2023-03-01T00:23:51;6.50;;;5.90;;
13349;SDS011;6744;53.190;6.576;2023-03-01T00:26:17;6.47;;;5.87;;
13349;SDS011;6744;53.190;6.576;2023-03-01T00:28:44;7.13;;;6.47;;
13349;SDS011;6744;53.190;6.576;2023-03-01T00:31:14;6.70;;;6.10;;
13349;SDS011;6744;53.190;6.576;2023-03-01T00:33:41;6.63;;;5.93;;
13349;SDS011;6744;53.190;6.576;2023-03-01T00:36:06;7.67;;;6.87;;
13349;SDS011;6744;53.190;6.576;2023-03-01T00:38:39;6.93;;;6.23;;
13349;SDS011;6744;53.190;6.576;2023-03-01T00:41:06;7.10;;;6.40;;
13349;SDS011;6744;53.190;6.576;2023-03-01T00:43:32;6.60;;;6.00;;
13349;SDS011;6744;53.190;6.576;2023-03-01T00:46:05;6.67;;;6.00;;
13349;SDS011;6744;53.190;6.576;2023-03-01T00:48:34;7.27;;;6.57;;
13349;SDS011;6744;53.190;6.576;2023-03-01T00:51:04;6.93;;;6.23;;
13349;SDS011;6744;53.190;6.576;2023-03-01T00:53:34;7.07;;;6.43;;
13349;SDS011;6744;53.190;6.576;2023-03-01T00:56:00;7.03;;;6.33;;
13349;SDS011;6744;53.190;6.576;2023-03-01T00:58:25;7.60;;;6.83;;
13349;SDS011;6744;53.190;6.576;2023-03-01T01:00:51;7.10;;;6.10;;
13349;SDS011;6744;53.190;6.576;2023-03-01T01:03:17;6.63;;;6.13;;
13349;SDS011;6744;53.190;6.576;2023-03-01T01:05:43;8.07;;;7.00;;
13349;SDS011;6744;53.190;6.576;2023-03-01T01:08:08;6.60;;;6.00;;
13349;SDS011;6744;53.190;6.576;2023-03-01T01:10:34;7.33;;;6.67;;
13349;SDS011;6744;53.190;6.576;2023-03-01T01:13:00;6.30;;;5.70;;
13349;SDS011;6744;53.190;6.576;2023-03-01T01:15:25;7.07;;;6.37;;
13349;SDS011;6744;53.190;6.576;2023-03-01T01:17:50;7.60;;;6.90;;
13349;SDS011;6744;53.190;6.576;2023-03-01T01:20:16;6.77;;;6.17;;
13349;SDS011;6744;53.190;6.576;2023-03-01T01:22:41;7.50;;;6.77;;
13349;SDS011;6744;53.190;6.576;2023-03-01T01:25:07;7.83;;;7.03;;
13349;SDS011;6744;53.190;6.576;2023-03-01T01:27:32;6.90;;;6.30;;
13349;SDS011;6744;53.190;6.576;2023-03-01T01:29:58;7.70;;;7.00;;
13349;SDS011;6744;53.190;6.576;2023-03-01T01:32:23;6.90;;;6.27;;
13349;SDS011;6744;53.190;6.576;2023-03-01T01:34:49;7.00;;;6.37;;
13349;SDS011;6744;53.190;6.576;2023-03-01T01:37:14;7.60;;;6.90;;
13349;SDS011;6744;53.190;6.576;2023-03-01T01:39:39;7.23;;;6.57;;
13349;SDS011;6744;53.190;6.576;2023-03-01T01:42:05;7.73;;;7.03;;
13349;SDS011;6744;53.190;6.576;2023-03-01T01:44:30;7.80;;;7.00;;
13349;SDS011;6744;53.190;6.576;2023-03-01T01:49:27;7.30;;;6.60;;
13349;SDS011;6744;53.190;6.576;2023-03-01T01:52:00;7.73;;;6.93;;
13349;SDS011;6744;53.190;6.576;2023-03-01T01:54:49;8.17;;;7.37;;
13349;SDS011;6744;53.190;6.576;2023-03-01T01:57:26;8.50;;;7.70;;
13349;SDS011;6744;53.190;6.576;2023-03-01T01:59:56;8.30;;;7.50;;
13349;SDS011;6744;53.190;6.576;2023-03-01T02:02:23;7.97;;;7.27;;
13349;SDS011;6744;53.190;6.576;2023-03-01T02:04:49;8.13;;;7.43;;
13349;SDS011;6744;53.190;6.576;2023-03-01T02:07:19;8.63;;;7.83;;
13349;SDS011;6744;53.190;6.576;2023-03-01T02:09:49;8.83;;;7.93;;
13349;SDS011;6744;53.190;6.576;2023-03-01T02:12:16;7.97;;;7.27;;
13349;SDS011;6744;53.190;6.576;2023-03-01T02:14:44;8.30;;;7.53;;
13349;SDS011;6744;53.190;6.576;2023-03-01T02:17:09;8.17;;;7.30;;
13349;SDS011;6744;53.190;6.576;2023-03-01T02:19:56;8.13;;;7.33;;
13349;SDS011;6744;53.190;6.576;2023-03-01T02:22:32;8.80;;;7.90;;
13349;SDS011;6744;53.190;6.576;2023-03-01T02:27:36;8.60;;;7.80;;
13349;SDS011;6744;53.190;6.576;2023-03-01T02:30:06;8.50;;;7.70;;
13349;SDS011;6744;53.190;6.576;2023-03-01T02:32:32;8.33;;;7.53;;
13349;SDS011;6744;53.190;6.576;2023-03-01T02:34:58;8.30;;;7.60;;
13349;SDS011;6744;53.190;6.576;2023-03-01T02:37:23;8.93;;;8.10;;
13349;SDS011;6744;53.190;6.576;2023-03-01T02:39:50;8.23;;;7.43;;
13349;SDS011;6744;53.190;6.576;2023-03-01T02:42:20;8.17;;;7.37;;
13349;SDS011;6744;53.190;6.576;2023-03-01T02:44:48;8.43;;;7.63;;
13349;SDS011;6744;53.190;6.576;2023-03-01T02:47:14;8.90;;;8.00;;
13349;SDS011;6744;53.190;6.576;2023-03-01T02:49:39;8.80;;;8.00;;
13349;SDS011;6744;53.190;6.576;2023-03-01T02:54:59;9.23;;;8.33;;
13349;SDS011;6744;53.190;6.576;2023-03-01T02:57:28;9.77;;;8.87;;
13349;SDS011;6744;53.190;6.576;2023-03-01T02:59:54;9.57;;;8.67;;
13349;SDS011;6744;53.190;6.576;2023-03-01T03:02:23;9.47;;;8.47;;
13349;SDS011;6744;53.190;6.576;2023-03-01T03:05:09;8.97;;;8.07;;
13349;SDS011;6744;53.190;6.576;2023-03-01T03:07:37;9.90;;;8.90;;
13349;SDS011;6744;53.190;6.576;2023-03-01T03:10:04;9.70;;;8.80;;
13349;SDS011;6744;53.190;6.576;2023-03-01T03:12:31;8.37;;;7.67;;
13349;SDS011;6744;53.190;6.576;2023-03-01T03:14:57;9.27;;;8.37;;
13349;SDS011;6744;53.190;6.576;2023-03-01T03:17:22;9.53;;;8.63;;
13349;SDS011;6744;53.190;6.576;2023-03-01T03:19:47;9.03;;;8.20;;
13349;SDS011;6744;53.190;6.576;2023-03-01T03:22:13;10.47;;;8.00;;
13349;SDS011;6744;53.190;6.576;2023-03-01T03:24:38;8.93;;;8.03;;
13349;SDS011;6744;53.190;6.576;2023-03-01T03:27:04;8.60;;;7.83;;
13349;SDS011;6744;53.190;6.576;2023-03-01T03:29:30;8.70;;;7.90;;
13349;SDS011;6744;53.190;6.576;2023-03-01T03:31:56;8.90;;;8.07;;
13349;SDS011;6744;53.190;6.576;2023-03-01T03:34:21;8.87;;;7.97;;
13349;SDS011;6744;53.190;6.576;2023-03-01T03:36:46;8.37;;;7.40;;
13349;SDS011;6744;53.190;6.576;2023-03-01T03:39:12;8.50;;;7.70;;
13349;SDS011;6744;53.190;6.576;2023-03-01T03:41:37;7.70;;;7.00;;
13349;SDS011;6744;53.190;6.576;2023-03-01T03:44:02;8.90;;;8.10;;
13349;SDS011;6744;53.190;6.576;2023-03-01T03:46:28;8.30;;;7.50;;
13349;SDS011;6744;53.190;6.576;2023-03-01T03:48:53;8.20;;;7.50;;
13349;SDS011;6744;53.190;6.576;2023-03-01T03:51:18;8.60;;;7.80;;
13349;SDS011;6744;53.190;6.576;2023-03-01T03:53:44;7.93;;;7.13;;
13349;SDS011;6744;53.190;6.576;2023-03-01T03:56:10;7.43;;;6.70;;
13349;SDS011;6744;53.190;6.576;2023-03-01T03:58:36;7.70;;;7.00;;
13349;SDS011;6744;53.190;6.576;2023-03-01T04:01:02;7.13;;;6.53;;
13349;SDS011;6744;53.190;6.576;2023-03-01T04:03:28;7.67;;;6.97;;
13349;SDS011;6744;53.190;6.576;2023-03-01T04:05:54;7.10;;;6.50;;
13349;SDS011;6744;53.190;6.576;2023-03-01T04:08:22;7.30;;;6.70;;
13349;SDS011;6744;53.190;6.576;2023-03-01T04:10:50;7.23;;;6.53;;
13349;SDS011;6744;53.190;6.576;2023-03-01T04:13:18;6.93;;;6.33;;
13349;SDS011;6744;53.190;6.576;2023-03-01T04:15:46;5.97;;;5.47;;
13349;SDS011;6744;53.190;6.576;2023-03-01T04:18:16;6.30;;;5.73;;
13349;SDS011;6744;53.190;6.576;2023-03-01T04:20:42;6.40;;;5.90;;
13349;SDS011;6744;53.190;6.576;2023-03-01T04:23:11;6.63;;;6.03;;
13349;SDS011;6744;53.190;6.576;2023-03-01T04:25:51;6.53;;;6.03;;
13349;SDS011;6744;53.190;6.576;2023-03-01T04:30:52;5.93;;;5.43;;
13349;SDS011;6744;53.190;6.576;2023-03-01T04:33:18;5.97;;;5.37;;
13349;SDS011;6744;53.190;6.576;2023-03-01T04:35:43;5.70;;;5.30;;
13349;SDS011;6744;53.190;6.576;2023-03-01T04:38:09;5.93;;;5.43;;
13349;SDS011;6744;53.190;6.576;2023-03-01T04:40:34;5.80;;;5.30;;
13349;SDS011;6744;53.190;6.576;2023-03-01T04:43:00;5.80;;;5.40;;
13349;SDS011;6744;53.190;6.576;2023-03-01T04:45:26;5.43;;;5.00;;
13349;SDS011;6744;53.190;6.576;2023-03-01T04:47:52;5.17;;;4.77;;
13349;SDS011;6744;53.190;6.576;2023-03-01T04:50:18;5.40;;;5.00;;
13349;SDS011;6744;53.190;6.576;2023-03-01T04:52:48;5.30;;;4.90;;
13349;SDS011;6744;53.190;6.576;2023-03-01T04:55:14;4.77;;;4.37;;
13349;SDS011;6744;53.190;6.576;2023-03-01T04:57:40;5.17;;;4.77;;
13349;SDS011;6744;53.190;6.576;2023-03-01T05:00:06;5.40;;;5.00;;
13349;SDS011;6744;53.190;6.576;2023-03-01T05:02:49;4.87;;;4.47;;
13349;SDS011;6744;53.190;6.576;2023-03-01T05:05:18;5.23;;;4.83;;
13349;SDS011;6744;53.190;6.576;2023-03-01T05:08:03;5.10;;;4.70;;
13349;SDS011;6744;53.190;6.576;2023-03-01T05:10:30;4.57;;;4.27;;
13349;SDS011;6744;53.190;6.576;2023-03-01T05:12:58;5.17;;;4.77;;
13349;SDS011;6744;53.190;6.576;2023-03-01T05:15:24;5.20;;;4.80;;
13349;SDS011;6744;53.190;6.576;2023-03-01T05:17:50;5.17;;;4.77;;
13349;SDS011;6744;53.190;6.576;2023-03-01T05:20:16;4.70;;;4.40;;
13349;SDS011;6744;53.190;6.576;2023-03-01T05:22:42;4.67;;;4.27;;
13349;SDS011;6744;53.190;6.576;2023-03-01T05:25:08;4.93;;;4.53;;
13349;SDS011;6744;53.190;6.576;2023-03-01T05:27:34;4.97;;;4.57;;
13349;SDS011;6744;53.190;6.576;2023-03-01T05:29:59;4.57;;;4.27;;
13349;SDS011;6744;53.190;6.576;2023-03-01T05:32:38;4.63;;;4.30;;
13349;SDS011;6744;53.190;6.576;2023-03-01T05:35:08;4.10;;;3.80;;
13349;SDS011;6744;53.190;6.576;2023-03-01T05:37:33;4.50;;;4.20;;
13349;SDS011;6744;53.190;6.576;2023-03-01T05:40:00;4.40;;;4.00;;
13349;SDS011;6744;53.190;6.576;2023-03-01T05:42:26;4.73;;;4.37;;
13349;SDS011;6744;53.190;6.576;2023-03-01T05:44:51;4.53;;;4.23;;
13349;SDS011;6744;53.190;6.576;2023-03-01T05:47:16;4.80;;;4.40;;
13349;SDS011;6744;53.190;6.576;2023-03-01T05:49:42;4.63;;;4.23;;
13349;SDS011;6744;53.190;6.576;2023-03-01T05:52:07;4.60;;;4.20;;
13349;SDS011;6744;53.190;6.576;2023-03-01T05:54:32;4.50;;;4.20;;
13349;SDS011;6744;53.190;6.576;2023-03-01T05:56:58;4.57;;;4.27;;
13349;SDS011;6744;53.190;6.576;2023-03-01T05:59:23;4.70;;;4.30;;
13349;SDS011;6744;53.190;6.576;2023-03-01T06:01:48;4.80;;;4.40;;
13349;SDS011;6744;53.190;6.576;2023-03-01T06:04:14;4.53;;;4.17;;
13349;SDS011;6744;53.190;6.576;2023-03-01T06:06:40;4.20;;;3.90;;
13349;SDS011;6744;53.190;6.576;2023-03-01T06:09:05;4.60;;;4.27;;
13349;SDS011;6744;53.190;6.576;2023-03-01T06:11:33;4.73;;;4.40;;
13349;SDS011;6744;53.190;6.576;2023-03-01T06:13:59;4.70;;;4.30;;
13349;SDS011;6744;53.190;6.576;2023-03-01T06:16:25;4.93;;;4.53;;
13349;SDS011;6744;53.190;6.576;2023-03-01T06:18:50;4.60;;;4.30;;
13349;SDS011;6744;53.190;6.576;2023-03-01T06:21:17;4.47;;;4.17;;
13349;SDS011;6744;53.190;6.576;2023-03-01T06:23:42;4.63;;;4.27;;
13349;SDS011;6744;53.190;6.576;2023-03-01T06:26:08;4.30;;;4.00;;
13349;SDS011;6744;53.190;6.576;2023-03-01T06:28:34;4.67;;;4.33;;
13349;SDS011;6744;53.190;6.576;2023-03-01T06:30:59;4.63;;;4.23;;
13349;SDS011;6744;53.190;6.576;2023-03-01T06:33:25;4.23;;;3.93;;
13349;SDS011;6744;53.190;6.576;2023-03-01T06:35:50;4.60;;;4.30;;
13349;SDS011;6744;53.190;6.576;2023-03-01T06:38:16;4.90;;;4.50;;
13349;SDS011;6744;53.190;6.576;2023-03-01T06:40:44;4.40;;;4.00;;
13349;SDS011;6744;53.190;6.576;2023-03-01T06:43:09;4.40;;;4.10;;
13349;SDS011;6744;53.190;6.576;2023-03-01T06:45:35;4.33;;;4.03;;
13349;SDS011;6744;53.190;6.576;2023-03-01T06:48:05;4.50;;;4.10;;
13349;SDS011;6744;53.190;6.576;2023-03-01T06:50:31;4.60;;;4.20;;
13349;SDS011;6744;53.190;6.576;2023-03-01T06:52:56;4.23;;;3.93;;
13349;SDS011;6744;53.190;6.576;2023-03-01T06:55:22;4.70;;;4.40;;
13349;SDS011;6744;53.190;6.576;2023-03-01T06:57:47;4.30;;;4.00;;
13349;SDS011;6744;53.190;6.576;2023-03-01T07:00:13;4.90;;;4.50;;
13349;SDS011;6744;53.190;6.576;2023-03-01T07:02:39;4.53;;;4.17;;
13349;SDS011;6744;53.190;6.576;2023-03-01T07:05:05;4.40;;;4.07;;
13349;SDS011;6744;53.190;6.576;2023-03-01T07:07:30;4.70;;;4.30;;
13349;SDS011;6744;53.190;6.576;2023-03-01T07:09:55;4.43;;;4.13;;
13349;SDS011;6744;53.190;6.576;2023-03-01T07:12:24;4.40;;;4.10;;
13349;SDS011;6744;53.190;6.576;2023-03-01T07:14:49;4.50;;;4.20;;
13349;SDS011;6744;53.190;6.576;2023-03-01T07:17:14;4.70;;;4.30;;
13349;SDS011;6744;53.190;6.576;2023-03-01T07:19:40;4.70;;;4.27;;
13349;SDS011;6744;53.190;6.576;2023-03-01T07:22:05;4.80;;;4.40;;
13349;SDS011;6744;53.190;6.576;2023-03-01T07:24:32;4.07;;;3.77;;
13349;SDS011;6744;53.190;6.576;2023-03-01T07:26:58;4.23;;;3.90;;
13349;SDS011;6744;53.190;6.576;2023-03-01T07:29:23;4.53;;;4.13;;
13349;SDS011;6744;53.190;6.576;2023-03-01T07:31:49;4.67;;;4.37;;
13349;SDS011;6744;53.190;6.576;2023-03-01T07:34:14;4.50;;;4.10;;
13349;SDS011;6744;53.190;6.576;2023-03-01T07:36:40;4.30;;;4.00;;
13349;SDS011;6744;53.190;6.576;2023-03-01T07:39:08;4.63;;;4.30;;
13349;SDS011;6744;53.190;6.576;2023-03-01T07:41:34;4.80;;;4.40;;
13349;SDS011;6744;53.190;6.576;2023-03-01T07:43:59;4.90;;;4.50;;
13349;SDS011;6744;53.190;6.576;2023-03-01T07:46:25;4.90;;;4.50;;
13349;SDS011;6744;53.190;6.576;2023-03-01T07:48:50;5.00;;;4.03;;
13349;SDS011;6744;53.190;6.576;2023-03-01T07:51:15;5.03;;;4.63;;
13349;SDS011;6744;53.190;6.576;2023-03-01T07:53:41;4.77;;;4.37;;
13349;SDS011;6744;53.190;6.576;2023-03-01T07:56:07;5.00;;;4.60;;
13349;SDS011;6744;53.190;6.576;2023-03-01T07:58:36;5.00;;;4.60;;
13349;SDS011;6744;53.190;6.576;2023-03-01T08:01:04;5.50;;;5.00;;
13349;SDS011;6744;53.190;6.576;2023-03-01T08:03:30;5.20;;;4.73;;
13349;SDS011;6744;53.190;6.576;2023-03-01T08:05:58;5.60;;;5.10;;
13349;SDS011;6744;53.190;6.576;2023-03-01T08:08:24;5.90;;;5.30;;
13349;SDS011;6744;53.190;6.576;2023-03-01T08:10:49;6.17;;;5.57;;
13349;SDS011;6744;53.190;6.576;2023-03-01T08:13:15;5.60;;;5.10;;
13349;SDS011;6744;53.190;6.576;2023-03-01T08:15:40;5.13;;;4.73;;
13349;SDS011;6744;53.190;6.576;2023-03-01T08:18:05;5.57;;;5.00;;
13349;SDS011;6744;53.190;6.576;2023-03-01T08:20:31;5.97;;;5.37;;
13349;SDS011;6744;53.190;6.576;2023-03-01T08:22:57;5.50;;;5.00;;
13349;SDS011;6744;53.190;6.576;2023-03-01T08:25:23;6.10;;;5.50;;
13349;SDS011;6744;53.190;6.576;2023-03-01T08:27:48;14.33;;;12.83;;
13349;SDS011;6744;53.190;6.576;2023-03-01T08:30:13;9.17;;;8.27;;
13349;SDS011;6744;53.190;6.576;2023-03-01T08:32:39;11.93;;;10.73;;
13349;SDS011;6744;53.190;6.576;2023-03-01T08:35:04;11.70;;;10.50;;
13349;SDS011;6744;53.190;6.576;2023-03-01T08:37:30;10.47;;;9.47;;
13349;SDS011;6744;53.190;6.576;2023-03-01T08:39:57;11.07;;;9.97;;
13349;SDS011;6744;53.190;6.576;2023-03-01T08:42:23;10.93;;;9.83;;
13349;SDS011;6744;53.190;6.576;2023-03-01T08:44:48;11.10;;;10.00;;
13349;SDS011;6744;53.190;6.576;2023-03-01T08:47:14;11.13;;;10.03;;
13349;SDS011;6744;53.190;6.576;2023-03-01T08:49:39;11.87;;;10.67;;
13349;SDS011;6744;53.190;6.576;2023-03-01T08:52:04;11.57;;;10.47;;
13349;SDS011;6744;53.190;6.576;2023-03-01T08:54:30;11.00;;;9.90;;
13349;SDS011;6744;53.190;6.576;2023-03-01T08:56:55;10.90;;;9.70;;
13349;SDS011;6744;53.190;6.576;2023-03-01T08:59:20;11.23;;;10.03;;
13349;SDS011;6744;53.190;6.576;2023-03-01T09:01:46;11.87;;;10.67;;
13349;SDS011;6744;53.190;6.576;2023-03-01T09:04:11;11.63;;;10.43;;
13349;SDS011;6744;53.190;6.576;2023-03-01T09:06:38;12.00;;;10.83;;
13349;SDS011;6744;53.190;6.576;2023-03-01T09:09:04;11.97;;;10.87;;
13349;SDS011;6744;53.190;6.576;2023-03-01T09:11:30;12.43;;;11.20;;
13349;SDS011;6744;53.190;6.576;2023-03-01T09:13:55;12.50;;;11.30;;
13349;SDS011;6744;53.190;6.576;2023-03-01T09:16:22;12.40;;;11.20;;
13349;SDS011;6744;53.190;6.576;2023-03-01T09:18:54;12.80;;;11.60;;
13349;SDS011;6744;53.190;6.576;2023-03-01T09:21:20;12.37;;;11.10;;
13349;SDS011;6744;53.190;6.576;2023-03-01T09:23:48;12.10;;;11.00;;
13349;SDS011;6744;53.190;6.576;2023-03-01T09:26:22;12.63;;;11.33;;
13349;SDS011;6744;53.190;6.576;2023-03-01T09:28:49;12.90;;;11.70;;
13349;SDS011;6744;53.190;6.576;2023-03-01T09:31:15;13.07;;;11.63;;
13349;SDS011;6744;53.190;6.576;2023-03-01T09:33:42;13.20;;;11.87;;
13349;SDS011;6744;53.190;6.576;2023-03-01T09:36:12;13.63;;;12.20;;
13349;SDS011;6744;53.190;6.576;2023-03-01T09:38:39;13.10;;;11.80;;
13349;SDS011;6744;53.190;6.576;2023-03-01T09:41:14;13.60;;;12.23;;
13349;SDS011;6744;53.190;6.576;2023-03-01T09:46:19;13.20;;;11.90;;
13349;SDS011;6744;53.190;6.576;2023-03-01T09:48:48;14.03;;;12.60;;
13349;SDS011;6744;53.190;6.576;2023-03-01T09:51:26;13.17;;;11.70;;
13349;SDS011;6744;53.190;6.576;2023-03-01T09:53:53;13.53;;;12.23;;
13349;SDS011;6744;53.190;6.576;2023-03-01T09:56:22;13.73;;;12.40;;
13349;SDS011;6744;53.190;6.576;2023-03-01T09:58:59;13.03;;;11.63;;
13349;SDS011;6744;53.190;6.576;2023-03-01T10:04:05;14.10;;;12.70;;
13349;SDS011;6744;53.190;6.576;2023-03-01T10:09:59;13.27;;;11.97;;
13349;SDS011;6744;53.190;6.576;2023-03-01T10:12:27;13.70;;;12.23;;
13349;SDS011;6744;53.190;6.576;2023-03-01T10:15:10;12.27;;;10.93;;
13349;SDS011;6744;53.190;6.576;2023-03-01T10:17:41;13.37;;;12.03;;
13349;SDS011;6744;53.190;6.576;2023-03-01T10:20:20;12.63;;;11.43;;
13349;SDS011;6744;53.190;6.576;2023-03-01T10:22:48;14.00;;;11.97;;
13349;SDS011;6744;53.190;6.576;2023-03-01T10:25:23;13.13;;;11.77;;
13349;SDS011;6744;53.190;6.576;2023-03-01T10:27:59;13.60;;;12.17;;
13349;SDS011;6744;53.190;6.576;2023-03-01T10:30:35;12.97;;;11.13;;
13349;SDS011;6744;53.190;6.576;2023-03-01T10:33:26;11.63;;;10.43;;
13349;SDS011;6744;53.190;6.576;2023-03-01T10:35:54;13.00;;;11.70;;
13349;SDS011;6744;53.190;6.576;2023-03-01T10:38:20;11.60;;;10.43;;
13349;SDS011;6744;53.190;6.576;2023-03-01T10:40:55;11.77;;;10.57;;
13349;SDS011;6744;53.190;6.576;2023-03-01T10:43:22;12.07;;;10.77;;
13349;SDS011;6744;53.190;6.576;2023-03-01T10:45:52;11.17;;;10.07;;
13349;SDS011;6744;53.190;6.576;2023-03-01T10:48:18;11.67;;;10.57;;
13349;SDS011;6744;53.190;6.576;2023-03-01T10:50:51;11.57;;;10.37;;
13349;SDS011;6744;53.190;6.576;2023-03-01T10:58:28;11.60;;;10.50;;
13349;SDS011;6744;53.190;6.576;2023-03-01T11:01:01;11.80;;;10.60;;
13349;SDS011;6744;53.190;6.576;2023-03-01T11:06:33;11.73;;;10.53;;
13349;SDS011;6744;53.190;6.576;2023-03-01T11:09:17;12.03;;;10.83;;
13349;SDS011;6744;53.190;6.576;2023-03-01T11:11:44;13.77;;;12.37;;
13349;SDS011;6744;53.190;6.576;2023-03-01T11:14:27;14.77;;;13.27;;
13349;SDS011;6744;53.190;6.576;2023-03-01T11:17:02;14.27;;;12.77;;
13349;SDS011;6744;53.190;6.576;2023-03-01T11:25:33;13.93;;;12.63;;
13349;SDS011;6744;53.190;6.576;2023-03-01T11:28:05;13.03;;;11.73;;
13349;SDS011;6744;53.190;6.576;2023-03-01T11:30:37;14.00;;;12.60;;
13349;SDS011;6744;53.190;6.576;2023-03-01T11:33:11;13.60;;;12.20;;
13349;SDS011;6744;53.190;6.576;2023-03-01T11:35:42;13.30;;;11.97;;
13349;SDS011;6744;53.190;6.576;2023-03-01T11:38:18;13.43;;;12.03;;
13349;SDS011;6744;53.190;6.576;2023-03-01T11:54:13;11.80;;;10.70;;
13349;SDS011;6744;53.190;6.576;2023-03-01T11:56:46;12.60;;;11.30;;
13349;SDS011;6744;53.190;6.576;2023-03-01T12:13:03;11.83;;;10.63;;
13349;SDS011;6744;53.190;6.576;2023-03-01T12:21:24;11.10;;;10.00;;
13349;SDS011;6744;53.190;6.576;2023-03-01T12:24:31;11.03;;;9.87;;
13349;SDS011;6744;53.190;6.576;2023-03-01T12:27:41;11.80;;;10.23;;
13349;SDS011;6744;53.190;6.576;2023-03-01T12:38:02;11.57;;;10.47;;
13349;SDS011;6744;53.190;6.576;2023-03-01T12:43:39;11.07;;;10.07;;
13349;SDS011;6744;53.190;6.576;2023-03-01T12:46:28;10.33;;;9.33;;
13349;SDS011;6744;53.190;6.576;2023-03-01T12:49:15;10.83;;;9.83;;
13349;SDS011;6744;53.190;6.576;2023-03-01T12:51:44;9.40;;;8.40;;
13349;SDS011;6744;53.190;6.576;2023-03-01T12:54:29;10.90;;;9.80;;
13349;SDS011;6744;53.190;6.576;2023-03-01T12:57:18;10.77;;;9.50;;
13349;SDS011;6744;53.190;6.576;2023-03-01T12:59:43;10.60;;;9.50;;
13349;SDS011;6744;53.190;6.576;2023-03-01T13:02:19;10.23;;;9.33;;
13349;SDS011;6744;53.190;6.576;2023-03-01T13:13:14;10.07;;;9.17;;
13349;SDS011;6744;53.190;6.576;2023-03-01T13:15:47;10.17;;;9.17;;
13349;SDS011;6744;53.190;6.576;2023-03-01T13:30:59;9.53;;;8.63;;
13349;SDS011;6744;53.190;6.576;2023-03-01T13:33:33;9.73;;;8.83;;
13349;SDS011;6744;53.190;6.576;2023-03-01T13:36:05;9.73;;;7.93;;
13349;SDS011;6744;53.190;6.576;2023-03-01T13:38:46;10.20;;;9.20;;
13349;SDS011;6744;53.190;6.576;2023-03-01T13:46:49;10.20;;;9.10;;
13349;SDS011;6744;53.190;6.576;2023-03-01T13:49:17;10.07;;;9.07;;
13349;SDS011;6744;53.190;6.576;2023-03-01T13:51:46;9.60;;;8.70;;
13349;SDS011;6744;53.190;6.576;2023-03-01T13:54:12;9.47;;;8.47;;
13349;SDS011;6744;53.190;6.576;2023-03-01T13:56:40;9.70;;;8.70;;
13349;SDS011;6744;53.190;6.576;2023-03-01T13:59:06;9.67;;;8.67;;
13349;SDS011;6744;53.190;6.576;2023-03-01T14:01:44;10.07;;;9.07;;
13349;SDS011;6744;53.190;6.576;2023-03-01T14:04:27;9.53;;;8.63;;
13349;SDS011;6744;53.190;6.576;2023-03-01T14:09:52;8.83;;;8.03;;
13349;SDS011;6744;53.190;6.576;2023-03-01T14:15:18;10.40;;;9.40;;
13349;SDS011;6744;53.190;6.576;2023-03-01T14:17:55;9.60;;;8.70;;
13349;SDS011;6744;53.190;6.576;2023-03-01T14:20:33;10.17;;;9.17;;
13349;SDS011;6744;53.190;6.576;2023-03-01T14:23:08;9.80;;;8.80;;
13349;SDS011;6744;53.190;6.576;2023-03-01T14:25:37;10.93;;;9.47;;
13349;SDS011;6744;53.190;6.576;2023-03-01T14:28:10;9.17;;;8.33;;
13349;SDS011;6744;53.190;6.576;2023-03-01T14:30:38;9.27;;;8.37;;
13349;SDS011;6744;53.190;6.576;2023-03-01T14:33:17;8.80;;;8.00;;
13349;SDS011;6744;53.190;6.576;2023-03-01T14:35:51;9.27;;;8.37;;
13349;SDS011;6744;53.190;6.576;2023-03-01T14:38:21;9.60;;;8.63;;
13349;SDS011;6744;53.190;6.576;2023-03-01T14:40:56;9.30;;;8.40;;
13349;SDS011;6744;53.190;6.576;2023-03-01T14:43:23;10.37;;;9.33;;
13349;SDS011;6744;53.190;6.576;2023-03-01T14:45:50;9.57;;;8.67;;
13349;SDS011;6744;53.190;6.576;2023-03-01T14:48:16;9.90;;;8.83;;
13349;SDS011;6744;53.190;6.576;2023-03-01T14:50:42;10.30;;;9.30;;
13349;SDS011;6744;53.190;6.576;2023-03-01T14:53:21;9.77;;;8.87;;
13349;SDS011;6744;53.190;6.576;2023-03-01T14:55:55;9.83;;;8.93;;
13349;SDS011;6744;53.190;6.576;2023-03-01T14:58:22;9.83;;;8.90;;
13349;SDS011;6744;53.190;6.576;2023-03-01T15:00:51;9.60;;;8.70;;
13349;SDS011;6744;53.190;6.576;2023-03-01T15:05:53;9.80;;;8.87;;
13349;SDS011;6744;53.190;6.576;2023-03-01T15:08:19;11.20;;;9.93;;
13349;SDS011;6744;53.190;6.576;2023-03-01T15:11:47;10.37;;;9.37;;
13349;SDS011;6744;53.190;6.576;2023-03-01T15:13:57;10.37;;;9.27;;
13349;SDS011;6744;53.190;6.576;2023-03-01T15:16:28;11.13;;;10.03;;
13349;SDS011;6744;53.190;6.576;2023-03-01T15:21:32;10.23;;;9.33;;
13349;SDS011;6744;53.190;6.576;2023-03-01T15:24:08;9.90;;;8.90;;
13349;SDS011;6744;53.190;6.576;2023-03-01T15:27:00;10.87;;;9.87;;
13349;SDS011;6744;53.190;6.576;2023-03-01T15:29:32;10.73;;;9.73;;
13349;SDS011;6744;53.190;6.576;2023-03-01T15:32:02;10.10;;;9.10;;
13349;SDS011;6744;53.190;6.576;2023-03-01T15:36:56;11.07;;;10.07;;
13349;SDS011;6744;53.190;6.576;2023-03-01T15:39:52;10.80;;;9.80;;
13349;SDS011;6744;53.190;6.576;2023-03-01T15:47:47;10.23;;;9.33;;
13349;SDS011;6744;53.190;6.576;2023-03-01T15:50:24;10.17;;;9.27;;
13349;SDS011;6744;53.190;6.576;2023-03-01T15:52:52;10.40;;;9.40;;
13349;SDS011;6744;53.190;6.576;2023-03-01T15:55:19;9.93;;;8.93;;
13349;SDS011;6744;53.190;6.576;2023-03-01T15:57:47;10.37;;;9.27;;
13349;SDS011;6744;53.190;6.576;2023-03-01T16:00:14;10.83;;;9.83;;
13349;SDS011;6744;53.190;6.576;2023-03-01T16:02:40;8.93;;;8.13;;
13349;SDS011;6744;53.190;6.576;2023-03-01T16:05:29;9.50;;;8.60;;
13349;SDS011;6744;53.190;6.576;2023-03-01T16:07:53;10.10;;;9.10;;
13349;SDS011;6744;53.190;6.576;2023-03-01T16:10:19;10.57;;;9.57;;
13349;SDS011;6744;53.190;6.576;2023-03-01T16:12:44;9.93;;;9.03;;
13349;SDS011;6744;53.190;6.576;2023-03-01T16:15:17;10.30;;;9.30;;
13349;SDS011;6744;53.190;6.576;2023-03-01T16:17:53;11.43;;;10.27;;
13349;SDS011;6744;53.190;6.576;2023-03-01T16:20:18;10.33;;;9.27;;
13349;SDS011;6744;53.190;6.576;2023-03-01T16:22:44;10.90;;;9.90;;
13349;SDS011;6744;53.190;6.576;2023-03-01T16:25:11;11.03;;;9.97;;
13349;SDS011;6744;53.190;6.576;2023-03-01T16:27:44;11.37;;;9.10;;
13349;SDS011;6744;53.190;6.576;2023-03-01T16:30:11;10.30;;;9.20;;
13349;SDS011;6744;53.190;6.576;2023-03-01T16:32:38;10.57;;;9.57;;
13349;SDS011;6744;53.190;6.576;2023-03-01T16:35:04;10.10;;;9.10;;
13349;SDS011;6744;53.190;6.576;2023-03-01T16:37:31;10.27;;;9.37;;
13349;SDS011;6744;53.190;6.576;2023-03-01T16:39:57;10.57;;;9.47;;
13349;SDS011;6744;53.190;6.576;2023-03-01T16:42:23;10.70;;;9.60;;
13349;SDS011;6744;53.190;6.576;2023-03-01T16:44:48;10.17;;;9.23;;
13349;SDS011;6744;53.190;6.576;2023-03-01T16:47:13;10.17;;;9.17;;
13349;SDS011;6744;53.190;6.576;2023-03-01T16:49:39;10.83;;;9.83;;
13349;SDS011;6744;53.190;6.576;2023-03-01T16:52:04;10.37;;;9.37;;
13349;SDS011;6744;53.190;6.576;2023-03-01T16:54:29;10.27;;;9.27;;
13349;SDS011;6744;53.190;6.576;2023-03-01T16:56:55;9.77;;;8.87;;
13349;SDS011;6744;53.190;6.576;2023-03-01T16:59:20;9.47;;;8.57;;
13349;SDS011;6744;53.190;6.576;2023-03-01T17:01:45;10.37;;;9.37;;
13349;SDS011;6744;53.190;6.576;2023-03-01T17:04:12;10.90;;;9.80;;
13349;SDS011;6744;53.190;6.576;2023-03-01T17:06:40;10.77;;;8.73;;